createdAt,value
2018-01-25T00:01:59.174Z,3.90
2018-01-25T00:04:27.550Z,4.47
2018-01-25T00:06:55.148Z,3.57
2018-01-25T00:09:23.544Z,3.23
2018-01-25T00:11:51.129Z,5.07
2018-01-25T00:14:18.782Z,4.73
2018-01-25T00:16:46.551Z,3.53
2018-01-25T00:19:14.159Z,4.77
2018-01-25T00:21:41.780Z,4.30
2018-01-25T00:24:09.378Z,4.53
2018-01-25T00:26:36.973Z,5.03
2018-01-25T00:29:04.579Z,4.00
2018-01-25T00:31:32.179Z,3.10
2018-01-25T00:33:59.789Z,3.87
2018-01-25T00:36:28.205Z,3.50
2018-01-25T00:38:56.645Z,4.10
2018-01-25T00:41:25.013Z,4.23
2018-01-25T00:43:53.515Z,5.10
2018-01-25T00:46:21.877Z,3.20
2018-01-25T00:48:49.487Z,4.00
2018-01-25T00:51:17.105Z,3.30
2018-01-25T00:53:46.217Z,3.10
2018-01-25T00:56:14.615Z,4.80
2018-01-25T00:58:42.991Z,4.30
2018-01-25T01:01:10.607Z,3.83
2018-01-25T01:03:38.211Z,3.33
2018-01-25T01:06:06.642Z,4.50
2018-01-25T01:08:34.277Z,2.63
2018-01-25T01:11:02.640Z,3.33
2018-01-25T01:13:30.268Z,4.30
2018-01-25T01:15:57.856Z,3.37
2018-01-25T01:18:25.442Z,4.10
2018-01-25T01:20:53.796Z,4.07
2018-01-25T01:23:21.382Z,3.80
2018-01-25T01:25:49.008Z,4.67
2018-01-25T01:28:16.598Z,6.00
2018-01-25T01:30:44.224Z,3.80
2018-01-25T01:33:11.808Z,3.33
2018-01-25T01:35:39.528Z,3.67
2018-01-25T01:38:07.870Z,3.93
2018-01-25T01:40:35.466Z,4.40
2018-01-25T01:43:03.090Z,3.43
2018-01-25T01:45:30.681Z,4.73
2018-01-25T01:47:58.291Z,3.60
2018-01-25T01:50:26.646Z,3.43
2018-01-25T01:52:54.234Z,3.97
2018-01-25T01:55:22.765Z,3.63
2018-01-25T01:57:50.589Z,3.43
2018-01-25T02:00:18.929Z,4.77
2018-01-25T02:02:46.545Z,3.40
2018-01-25T02:05:14.896Z,3.50
2018-01-25T02:07:42.533Z,3.83
2018-01-25T02:10:10.166Z,4.10
2018-01-25T02:12:37.995Z,3.50
2018-01-25T02:15:05.591Z,4.10
2018-01-25T02:17:33.955Z,4.03
2018-01-25T02:20:01.567Z,4.80
2018-01-25T02:22:29.191Z,3.50
2018-01-25T02:24:56.775Z,4.53
2018-01-25T02:27:25.153Z,3.40
2018-01-25T02:29:53.521Z,3.30
2018-01-25T02:32:21.150Z,4.40
2018-01-25T02:34:48.757Z,5.27
2018-01-25T02:37:17.165Z,4.30
2018-01-25T02:39:44.783Z,3.23
2018-01-25T02:42:12.371Z,3.70
2018-01-25T02:44:39.975Z,4.37
2018-01-25T02:47:07.562Z,3.40
2018-01-25T02:49:35.332Z,3.07
2018-01-25T02:52:02.915Z,3.40
2018-01-25T02:54:30.555Z,3.47
2018-01-25T02:56:58.174Z,3.03
2018-01-25T02:59:26.660Z,3.50
2018-01-25T03:01:55.095Z,3.10
2018-01-25T03:04:22.742Z,4.30
2018-01-25T03:06:50.329Z,3.80
2018-01-25T03:09:17.986Z,3.20
2018-01-25T03:11:45.724Z,3.57
2018-01-25T03:14:14.084Z,3.00
2018-01-25T03:16:41.694Z,2.60
2018-01-25T03:19:09.274Z,3.50
2018-01-25T03:21:37.154Z,2.90
2018-01-25T03:24:04.756Z,3.20
2018-01-25T03:26:32.357Z,3.87
2018-01-25T03:28:59.956Z,5.30
2018-01-25T03:31:27.556Z,4.53
2018-01-25T03:33:56.078Z,4.10
2018-01-25T03:36:23.672Z,3.93
2018-01-25T03:38:51.282Z,3.23
2018-01-25T03:41:19.636Z,4.33
2018-01-25T03:43:48.002Z,3.80
2018-01-25T03:46:15.601Z,5.57
2018-01-25T03:48:43.969Z,3.63
2018-01-25T03:51:12.466Z,5.47
2018-01-25T03:53:40.955Z,4.63
2018-01-25T03:56:09.354Z,5.10
2018-01-25T03:58:37.723Z,4.37
2018-01-25T04:01:06.077Z,5.50
2018-01-25T04:03:33.689Z,4.20
2018-01-25T04:06:01.369Z,5.00
2018-01-25T04:08:28.979Z,4.20
2018-01-25T04:10:56.583Z,3.70
2018-01-25T04:13:25.067Z,2.90
2018-01-25T04:15:53.457Z,3.40
2018-01-25T04:18:21.065Z,2.27
2018-01-25T04:20:48.685Z,4.30
2018-01-25T04:23:17.049Z,3.80
2018-01-25T04:25:44.670Z,4.00
2018-01-25T04:28:12.260Z,2.97
2018-01-25T04:30:40.413Z,2.87
2018-01-25T04:33:08.003Z,2.30
2018-01-25T04:35:36.347Z,2.00
2018-01-25T04:38:03.965Z,2.33
2018-01-25T04:40:31.586Z,3.03
2018-01-25T04:42:59.182Z,2.30
2018-01-25T04:45:26.774Z,1.70
2018-01-25T04:47:55.255Z,2.20
2018-01-25T04:50:23.631Z,2.53
2018-01-25T04:52:52.038Z,2.40
2018-01-25T04:55:20.402Z,1.87
2018-01-25T04:57:48.018Z,2.90
2018-01-25T05:00:15.648Z,2.97
2018-01-25T05:02:44.106Z,1.90
2018-01-25T05:05:13.216Z,2.90
2018-01-25T05:07:40.836Z,2.60
2018-01-25T05:10:08.420Z,3.43
2018-01-25T05:12:36.070Z,2.17
2018-01-25T05:15:03.666Z,4.53
2018-01-25T05:17:41.950Z,3.47
2018-01-25T05:20:09.528Z,3.87
2018-01-25T05:22:37.122Z,3.60
2018-01-25T05:25:05.482Z,3.77
2018-01-25T05:27:33.879Z,3.50
2018-01-25T05:30:02.242Z,3.77
2018-01-25T05:32:29.883Z,3.67
2018-01-25T05:34:57.539Z,3.30
2018-01-25T05:37:25.132Z,2.40
2018-01-25T05:39:52.743Z,2.53
2018-01-25T05:42:21.107Z,3.20
2018-01-25T05:44:48.773Z,1.90
2018-01-25T05:47:17.138Z,2.20
2018-01-25T05:49:44.760Z,2.50
2018-01-25T05:52:12.367Z,2.50
2018-01-25T05:54:40.003Z,2.50
2018-01-25T05:57:07.599Z,3.33
2018-01-25T05:59:35.331Z,3.03
2018-01-25T06:02:03.055Z,1.90
2018-01-25T06:04:30.663Z,3.57
2018-01-25T06:06:58.468Z,4.07
2018-01-25T06:09:26.367Z,2.87
2018-01-25T06:11:54.739Z,2.93
2018-01-25T06:14:22.331Z,1.93
2018-01-25T06:16:49.981Z,2.23
2018-01-25T06:19:18.173Z,1.80
2018-01-25T06:21:46.657Z,3.27
2018-01-25T06:24:15.116Z,2.57
2018-01-25T06:26:42.774Z,2.30
2018-01-25T06:29:10.374Z,3.37
2018-01-25T06:31:38.771Z,1.80
2018-01-25T06:34:07.178Z,2.57
2018-01-25T06:36:34.773Z,3.10
2018-01-25T06:39:02.407Z,2.77
2018-01-25T06:41:30.032Z,1.63
2018-01-25T06:43:58.390Z,3.00
2018-01-25T06:46:26.014Z,3.03
2018-01-25T06:48:53.756Z,4.70
2018-01-25T06:51:22.144Z,4.10
2018-01-25T06:53:50.532Z,3.20
2018-01-25T06:56:18.891Z,2.70
2018-01-25T06:58:46.498Z,3.10
2018-01-25T07:01:14.088Z,1.83
2018-01-25T07:03:41.714Z,1.93
2018-01-25T07:06:10.218Z,2.37
2018-01-25T07:08:37.928Z,4.00
2018-01-25T07:11:05.515Z,3.57
2018-01-25T07:13:33.125Z,4.30
2018-01-25T07:16:00.731Z,10.80
2018-01-25T07:18:29.134Z,12.13
2018-01-25T07:20:57.521Z,10.93
2018-01-25T07:23:26.014Z,13.73
2018-01-25T07:25:54.400Z,17.07
2018-01-25T07:28:22.802Z,16.10
2018-01-25T07:30:51.078Z,9.63
2018-01-25T07:33:18.677Z,11.30
2018-01-25T07:35:46.315Z,12.60
2018-01-25T07:38:13.929Z,13.07
2018-01-25T07:40:43.071Z,11.30
2018-01-25T07:43:10.697Z,8.63
2018-01-25T07:45:39.189Z,4.90
2018-01-25T07:48:06.806Z,5.17
2018-01-25T07:50:34.409Z,5.70
2018-01-25T07:53:01.999Z,4.80
2018-01-25T07:55:30.392Z,3.60
2018-01-25T07:58:14.353Z,5.13
2018-01-25T08:00:41.976Z,3.77
2018-01-25T08:03:09.579Z,4.63
2018-01-25T08:05:37.265Z,3.27
2018-01-25T08:08:04.873Z,4.73
2018-01-25T08:10:32.511Z,4.80
2018-01-25T08:13:05.807Z,4.50
2018-01-25T08:15:33.419Z,3.07
2018-01-25T08:18:01.793Z,2.40
2018-01-25T08:20:29.416Z,3.30
2018-01-25T08:22:57.007Z,3.20
2018-01-25T08:25:24.669Z,2.40
2018-01-25T08:27:52.284Z,1.60
2018-01-25T08:30:19.881Z,1.70
2018-01-25T08:32:47.527Z,2.20
2018-01-25T08:35:15.123Z,1.97
2018-01-25T08:37:42.742Z,2.87
2018-01-25T08:40:10.338Z,1.97
2018-01-25T08:42:37.966Z,2.60
2018-01-25T08:45:06.520Z,3.10
2018-01-25T08:47:35.644Z,1.80
2018-01-25T08:50:04.014Z,2.07
2018-01-25T08:52:31.628Z,1.77
2018-01-25T08:54:59.244Z,2.20
2018-01-25T08:57:27.652Z,1.93
2018-01-25T08:59:56.054Z,1.93
2018-01-25T09:02:24.490Z,2.40
2018-01-25T09:04:52.202Z,1.67
2018-01-25T09:07:19.795Z,2.23
2018-01-25T09:09:47.438Z,2.00
2018-01-25T09:12:15.044Z,1.80
2018-01-25T09:14:42.673Z,1.83
2018-01-25T09:17:10.289Z,2.10
2018-01-25T09:19:37.896Z,1.40
2018-01-25T09:22:05.729Z,1.70
2018-01-25T09:24:33.351Z,2.10
2018-01-25T09:27:01.017Z,2.07
2018-01-25T09:29:29.355Z,1.63
2018-01-25T09:31:57.734Z,2.17
2018-01-25T09:34:27.040Z,2.17
2018-01-25T09:36:54.644Z,2.20
2018-01-25T09:39:22.247Z,2.00
2018-01-25T09:41:49.870Z,1.87
2018-01-25T09:44:17.510Z,1.57
2018-01-25T09:46:45.874Z,1.93
2018-01-25T09:49:13.479Z,1.33
2018-01-25T09:51:41.150Z,1.50
2018-01-25T09:54:08.719Z,1.70
2018-01-25T09:56:36.341Z,1.43
2018-01-25T09:59:04.047Z,1.80
2018-01-25T10:01:31.679Z,6.20
2018-01-25T10:04:00.055Z,1.43
2018-01-25T10:06:28.150Z,1.30
2018-01-25T10:08:56.520Z,1.63
2018-01-25T10:11:24.119Z,1.60
2018-01-25T10:13:51.775Z,1.70
2018-01-25T10:16:19.371Z,1.80
2018-01-25T10:18:47.003Z,1.60
2018-01-25T10:21:15.368Z,2.00
2018-01-25T10:23:43.008Z,2.00
2018-01-25T10:26:10.659Z,2.03
2018-01-25T10:28:38.269Z,1.67
2018-01-25T10:31:06.658Z,1.83
2018-01-25T10:33:35.035Z,2.00
2018-01-25T10:36:03.425Z,1.37
2018-01-25T10:38:31.786Z,2.30
2018-01-25T10:40:59.402Z,1.63
2018-01-25T10:43:27.000Z,1.80
2018-01-25T10:45:54.625Z,1.50
2018-01-25T10:48:22.404Z,1.63
2018-01-25T10:50:50.023Z,1.87
2018-01-25T10:53:18.437Z,1.30
2018-01-25T10:55:46.037Z,1.50
2018-01-25T10:58:13.674Z,1.43
2018-01-25T11:00:47.018Z,20.77
2018-01-25T11:03:14.667Z,4.50
2018-01-25T11:05:42.279Z,12.00
2018-01-25T11:08:10.734Z,1.53
2018-01-25T11:10:38.420Z,1.90
2018-01-25T11:13:06.778Z,1.93
2018-01-25T11:15:34.419Z,2.70
2018-01-25T11:18:02.016Z,2.80
2018-01-25T11:20:29.817Z,2.50
2018-01-25T11:22:58.228Z,2.93
2018-01-25T11:25:25.841Z,1.73
2018-01-25T11:27:53.454Z,1.80
2018-01-25T11:30:21.076Z,1.60
2018-01-25T11:32:48.941Z,1.97
2018-01-25T11:35:16.535Z,2.20
2018-01-25T11:37:44.888Z,1.73
2018-01-25T11:40:12.541Z,1.40
2018-01-25T11:42:40.149Z,1.90
2018-01-25T11:45:08.578Z,1.97
2018-01-25T11:47:36.188Z,1.97
2018-01-25T11:50:03.934Z,1.70
2018-01-25T11:52:31.545Z,1.70
2018-01-25T11:54:59.903Z,2.10
2018-01-25T11:57:27.538Z,2.00
2018-01-25T11:59:55.134Z,1.87
2018-01-25T12:02:24.592Z,1.60
2018-01-25T12:04:52.175Z,1.33
2018-01-25T12:07:19.899Z,1.80
2018-01-25T12:09:48.286Z,1.53
2018-01-25T12:12:16.664Z,1.70
2018-01-25T12:14:45.068Z,1.37
2018-01-25T12:17:12.660Z,1.13
2018-01-25T12:19:40.285Z,0.90
2018-01-25T12:22:07.899Z,1.07
2018-01-25T12:24:35.532Z,1.10
2018-01-25T12:27:03.183Z,1.10
2018-01-25T12:29:31.540Z,1.23
2018-01-25T12:31:59.300Z,0.90
2018-01-25T12:34:26.922Z,1.20
2018-01-25T12:36:54.683Z,1.50
2018-01-25T12:39:22.289Z,1.83
2018-01-25T12:41:49.908Z,31.43
2018-01-25T12:44:17.546Z,2.10
2018-01-25T12:46:45.145Z,1.87
2018-01-25T12:49:12.808Z,1.63
2018-01-25T12:51:40.436Z,1.57
2018-01-25T12:54:08.799Z,1.40
2018-01-25T12:56:37.183Z,1.40
2018-01-25T12:59:04.790Z,0.80
2018-01-25T13:01:33.172Z,1.43
2018-01-25T13:04:01.533Z,1.00
2018-01-25T13:06:29.213Z,1.40
2018-01-25T13:08:56.821Z,2.07
2018-01-25T13:11:24.409Z,2.13
2018-01-25T13:13:52.020Z,1.80
2018-01-25T13:16:20.427Z,0.93
2018-01-25T13:18:48.325Z,1.40
2018-01-25T13:21:15.911Z,1.53
2018-01-25T13:23:43.667Z,4.73
2018-01-25T13:26:11.277Z,1.30
2018-01-25T13:28:39.641Z,1.80
2018-01-25T13:31:07.265Z,1.67
2018-01-25T13:33:41.243Z,1.27
2018-01-25T13:36:09.615Z,1.60
2018-01-25T13:38:37.985Z,2.77
2018-01-25T13:41:05.598Z,1.60
2018-01-25T13:43:33.293Z,2.03
2018-01-25T13:46:01.045Z,1.53
2018-01-25T13:48:28.666Z,1.10
2018-01-25T13:50:57.026Z,1.50
2018-01-25T13:53:26.180Z,1.80
2018-01-25T13:55:53.840Z,1.20
2018-01-25T13:58:21.450Z,1.43
2018-01-25T14:00:49.077Z,1.60
2018-01-25T14:03:16.698Z,2.20
2018-01-25T14:05:44.633Z,2.40
2018-01-25T14:08:12.247Z,4.80
2018-01-25T14:10:40.648Z,6.63
2018-01-25T14:13:08.310Z,4.30
2018-01-25T14:15:36.697Z,3.30
2018-01-25T14:18:05.324Z,2.13
2018-01-25T14:20:32.922Z,1.10
2018-01-25T14:23:01.364Z,1.30
2018-01-25T14:25:28.976Z,1.57
2018-01-25T14:27:56.600Z,49.13
2018-01-25T14:30:24.235Z,4.33
2018-01-25T14:32:52.743Z,1.60
2018-01-25T14:35:20.367Z,1.70
2018-01-25T14:37:48.736Z,1.27
2018-01-25T14:40:16.432Z,1.63
2018-01-25T14:42:44.806Z,1.30
2018-01-25T14:45:13.210Z,1.47
2018-01-25T14:47:41.587Z,1.50
2018-01-25T14:50:09.192Z,1.80
2018-01-25T14:52:36.901Z,1.83
2018-01-25T14:55:05.378Z,1.53
2018-01-25T14:57:33.009Z,1.50
2018-01-25T15:00:00.613Z,1.27
2018-01-25T15:02:28.239Z,1.43
2018-01-25T15:04:55.850Z,1.03
2018-01-25T15:07:24.194Z,1.10
2018-01-25T15:09:51.842Z,1.20
2018-01-25T15:12:19.559Z,1.23
2018-01-25T15:14:47.150Z,1.30
2018-01-25T15:17:14.788Z,1.27
2018-01-25T15:19:43.181Z,2.30
2018-01-25T15:22:11.592Z,4.27
2018-01-25T15:24:39.227Z,2.83
2018-01-25T15:27:07.635Z,2.30
2018-01-25T15:29:35.275Z,1.83
2018-01-25T15:32:02.879Z,3.40
2018-01-25T15:34:31.296Z,18.80
2018-01-25T15:36:58.981Z,11.10
2018-01-25T15:39:26.631Z,8.60
2018-01-25T15:41:54.259Z,3.60
2018-01-25T15:44:21.907Z,3.00
2018-01-25T15:46:50.310Z,3.53
2018-01-25T15:49:18.720Z,2.70
2018-01-25T15:51:47.087Z,4.43
2018-01-25T15:54:14.694Z,4.67
2018-01-25T15:56:42.339Z,3.67
2018-01-25T15:59:09.930Z,2.80
2018-01-25T16:01:37.566Z,13.93
2018-01-25T16:04:05.186Z,3.37
2018-01-25T16:06:33.590Z,3.73
2018-01-25T16:09:01.204Z,2.60
2018-01-25T16:11:28.874Z,3.60
2018-01-25T16:13:56.575Z,2.20
2018-01-25T16:16:24.976Z,2.87
2018-01-25T16:18:52.602Z,3.10
2018-01-25T16:21:20.222Z,2.77
2018-01-25T16:23:47.842Z,3.03
2018-01-25T16:26:16.211Z,2.97
2018-01-25T16:28:43.828Z,6.33
2018-01-25T16:31:11.614Z,16.70
2018-01-25T16:33:39.236Z,12.40
2018-01-25T16:36:07.647Z,5.73
2018-01-25T16:38:35.262Z,5.60
2018-01-25T16:41:02.909Z,6.27
2018-01-25T16:43:30.518Z,7.60
2018-01-25T16:45:58.901Z,7.83
2018-01-25T16:48:27.291Z,8.60
2018-01-25T16:50:55.685Z,7.83
2018-01-25T16:53:23.375Z,8.83
2018-01-25T16:55:50.987Z,6.80
2018-01-25T16:58:19.387Z,4.63
2018-01-25T17:00:47.792Z,3.83
2018-01-25T17:03:15.423Z,3.77
2018-01-25T17:05:43.809Z,3.63
2018-01-25T17:08:12.219Z,3.27
2018-01-25T17:10:40.007Z,4.50
2018-01-25T17:13:07.611Z,3.57
2018-01-25T17:15:35.271Z,4.07
2018-01-25T17:18:02.976Z,8.17
2018-01-25T17:20:31.397Z,12.07
2018-01-25T17:22:59.057Z,44.93
2018-01-25T17:25:26.680Z,41.40
2018-01-25T17:27:55.124Z,45.07
2018-01-25T17:30:22.735Z,46.87
2018-01-25T17:32:51.135Z,60.83
2018-01-25T17:35:18.764Z,62.87
2018-01-25T17:37:47.810Z,66.47
2018-01-25T17:40:15.527Z,89.57
2018-01-25T17:42:43.149Z,74.23
2018-01-25T17:45:10.805Z,59.80
2018-01-25T17:47:38.479Z,43.80
2018-01-25T17:50:06.107Z,35.87
2018-01-25T17:52:33.780Z,27.80
2018-01-25T17:55:02.266Z,18.57
2018-01-25T17:57:29.892Z,24.53
2018-01-25T17:59:57.537Z,22.13
2018-01-25T18:02:25.185Z,19.40
2018-01-25T18:04:56.966Z,16.67
2018-01-25T18:07:24.590Z,14.00
2018-01-25T18:09:53.134Z,11.87
2018-01-25T18:12:20.756Z,10.77
2018-01-25T18:14:49.112Z,10.00
2018-01-25T18:17:16.743Z,8.70
2018-01-25T18:19:44.350Z,10.40
2018-01-25T18:22:12.755Z,8.30
2018-01-25T18:24:40.366Z,6.80
2018-01-25T18:27:08.030Z,6.23
2018-01-25T18:29:35.773Z,6.83
2018-01-25T18:32:03.413Z,6.50
2018-01-25T18:34:31.850Z,7.83
2018-01-25T18:36:59.524Z,6.90
2018-01-25T18:39:27.178Z,7.37
2018-01-25T18:41:54.874Z,8.53
2018-01-25T18:44:22.717Z,6.50
2018-01-25T18:46:50.469Z,6.43
2018-01-25T18:49:18.165Z,6.83
2018-01-25T18:51:45.855Z,6.77
2018-01-25T18:54:14.372Z,7.70
2018-01-25T18:56:42.032Z,7.00
2018-01-25T18:59:10.406Z,6.73
2018-01-25T19:01:39.344Z,11.70
2018-01-25T19:04:07.029Z,12.50
2018-01-25T19:06:34.730Z,10.13
2018-01-25T19:09:03.253Z,7.93
2018-01-25T19:11:30.920Z,6.53
2018-01-25T19:13:58.660Z,8.10
2018-01-25T19:16:27.853Z,19.43
2018-01-25T19:18:55.576Z,148.67
2018-01-25T19:21:24.048Z,98.47
2018-01-25T19:23:51.730Z,31.07
2018-01-25T19:26:19.415Z,18.70
2018-01-25T19:28:47.156Z,41.33
2018-01-25T19:31:15.842Z,12.07
2018-01-25T19:33:43.610Z,16.73
2018-01-25T19:36:11.494Z,36.53
2018-01-25T19:38:39.194Z,36.17
2018-01-25T19:41:06.888Z,14.03
2018-01-25T19:43:34.576Z,17.90
2018-01-25T19:46:02.338Z,11.07
2018-01-25T19:48:30.458Z,13.50
2018-01-25T19:50:58.300Z,10.10
2018-01-25T19:53:26.605Z,8.33
2018-01-25T19:55:54.345Z,16.17
2018-01-25T19:58:22.057Z,13.53
2018-01-25T20:00:51.335Z,13.63
2018-01-25T20:03:19.047Z,11.63
2018-01-25T20:05:47.485Z,8.60
2018-01-25T20:08:15.145Z,7.17
2018-01-25T20:10:43.093Z,6.93
2018-01-25T20:13:11.550Z,5.57
2018-01-25T20:15:39.260Z,4.43
2018-01-25T20:18:06.967Z,4.70
2018-01-25T20:20:34.588Z,4.70
2018-01-25T20:23:02.318Z,5.37
2018-01-25T20:25:29.987Z,4.77
2018-01-25T20:27:58.437Z,4.57
2018-01-25T20:30:26.133Z,7.20
2018-01-25T20:32:54.597Z,6.53
2018-01-25T20:35:22.593Z,8.23
2018-01-25T20:37:50.246Z,6.90
2018-01-25T20:40:17.949Z,7.33
2018-01-25T20:42:46.413Z,6.40
2018-01-25T20:45:14.947Z,9.53
2018-01-25T20:47:42.655Z,8.17
2018-01-25T20:50:11.209Z,7.63
2018-01-25T20:52:38.909Z,9.97
2018-01-25T20:55:06.612Z,11.73
2018-01-25T20:57:35.555Z,7.83
2018-01-25T21:00:03.259Z,8.33
2018-01-25T21:02:30.933Z,8.00
2018-01-25T21:04:58.649Z,14.37
2018-01-25T21:07:26.354Z,12.93
2018-01-25T21:09:54.813Z,8.00
2018-01-25T21:12:22.558Z,6.40
2018-01-25T21:14:50.308Z,8.10
2018-01-25T21:17:18.100Z,9.07
2018-01-25T21:19:45.760Z,7.53
2018-01-25T21:22:13.507Z,7.40
2018-01-25T21:24:41.978Z,8.50
2018-01-25T21:27:09.632Z,7.43
2018-01-25T21:29:37.307Z,6.80
2018-01-25T21:32:04.914Z,6.70
2018-01-25T21:34:32.692Z,6.77
2018-01-25T21:37:00.362Z,7.00
2018-01-25T21:39:28.202Z,7.90
2018-01-25T21:41:55.818Z,9.50
2018-01-25T21:44:23.480Z,8.87
2018-01-25T21:46:51.140Z,7.60
2018-01-25T21:49:18.808Z,6.47
2018-01-25T21:51:46.512Z,5.53
2018-01-25T21:54:14.178Z,6.90
2018-01-25T21:56:42.158Z,6.50
2018-01-25T21:59:09.826Z,5.93
2018-01-25T22:01:37.476Z,7.20
2018-01-25T22:04:05.886Z,6.10
2018-01-25T22:06:34.322Z,5.57
2018-01-25T22:09:01.937Z,6.60
2018-01-25T22:11:30.300Z,7.50
2018-01-25T22:13:57.940Z,6.77
2018-01-25T22:16:25.550Z,6.27
2018-01-25T22:18:53.174Z,5.53
2018-01-25T22:21:20.841Z,5.43
2018-01-25T22:23:48.457Z,7.50
2018-01-25T22:26:16.886Z,6.50
2018-01-25T22:28:44.513Z,6.27
2018-01-25T22:31:12.889Z,7.23
2018-01-25T22:33:41.265Z,7.47
2018-01-25T22:36:09.645Z,10.37
2018-01-25T22:38:38.051Z,14.17
2018-01-25T22:41:06.410Z,8.47
2018-01-25T22:43:34.057Z,5.63
2018-01-25T22:46:01.653Z,6.90
2018-01-25T22:48:30.053Z,7.27
2018-01-25T22:50:57.642Z,6.60
2018-01-25T22:53:25.320Z,6.27
2018-01-25T22:55:52.939Z,6.70
2018-01-25T22:58:21.291Z,6.43
2018-01-25T23:00:49.691Z,6.20
2018-01-25T23:03:17.270Z,6.27
2018-01-25T23:05:45.670Z,6.70
2018-01-25T23:08:13.402Z,6.13
2018-01-25T23:10:41.769Z,7.17
2018-01-25T23:13:09.388Z,6.70
2018-01-25T23:15:36.973Z,6.83
2018-01-25T23:18:04.594Z,8.63
2018-01-25T23:20:33.104Z,8.50
2018-01-25T23:23:00.762Z,7.43
2018-01-25T23:25:29.134Z,10.13
2018-01-25T23:27:57.502Z,8.10
2018-01-25T23:30:25.428Z,6.60
2018-01-25T23:32:53.026Z,7.00
2018-01-25T23:35:20.624Z,9.13
2018-01-25T23:37:48.308Z,7.93
2018-01-25T23:40:15.902Z,8.97
2018-01-25T23:42:43.531Z,9.30
2018-01-25T23:45:11.906Z,6.40
2018-01-25T23:47:40.281Z,7.10
2018-01-25T23:50:08.639Z,7.40
2018-01-25T23:52:36.301Z,8.37
2018-01-25T23:55:03.953Z,8.60
2018-01-25T23:57:31.543Z,8.57
